Time;durP1;ratioP1;P1;durP2;ratioP2;P2;SDS_P1;SDS_P2;PMS_P1;PMS_P2;Temp;Humidity;BMP_temperature;BMP_pressure;BME280_temperature;BME280_humidity;BME280_pressure;Samples;Min_cycle;Max_cycle;Signal;HPM_P1;HPM_P2
2022/06/10 00:00:05;;;;;;;;;;;;;;;-149.78;100.00;50225.03;5101135;28;19927;-73
2022/06/10 00:02:36;;;;;;;;;;;;;;;-149.78;100.00;50217.19;5102188;28;19972;-73
2022/06/10 00:05:02;;;;;;;;;;;;;;;-149.78;100.00;50236.75;5101011;28;19924;-73
2022/06/10 00:07:33;;;;;;;;;;;;;;;-149.78;100.00;50189.81;5103581;28;19926;-73
2022/06/10 00:10:02;;;;;;;;;;;;;;;-149.78;100.00;50189.81;5099323;28;19951;-73
2022/06/10 00:12:28;;;;;;;;;;;;;;;-149.78;100.00;50203.50;5103217;28;19928;-73
2022/06/10 00:14:53;;;;;;;;;;;;;;;-149.78;100.00;50211.34;5103797;28;19928;-73
2022/06/10 00:17:19;;;;;;;;;;;;;;;-149.78;100.00;50232.84;5102894;28;19919;-73
2022/06/10 00:19:44;;;;;;;;;;;;;;;-149.78;100.00;50166.34;5102487;28;19923;-73
2022/06/10 00:22:10;;;;;;;;;;;;;;;-149.78;100.00;50189.81;5089015;28;19931;-73
2022/06/10 00:24:36;;;;;;;;;;;;;;;-149.78;100.00;50217.19;5088221;28;20011;-73
2022/06/10 00:27:01;;;;;;;;;;;;;;;-149.78;100.00;50183.97;5105738;28;19965;-73
2022/06/10 00:29:27;;;;;;;;;;;;;;;-149.78;100.00;50189.81;5099301;28;19977;-72
2022/06/10 00:31:53;;;;;;;;;;;;;;;-149.78;100.00;50225.03;5108437;28;20369;-72
2022/06/10 00:34:19;;;;;;;;;;;;;;;-149.78;100.00;50185.91;5103562;28;20018;-72
2022/06/10 00:36:44;;;;;;;;;;;;;;;-149.78;100.00;50205.47;5100603;28;20035;-72
2022/06/10 00:39:10;;;;;;;;;;;;;;;-149.78;100.00;50209.38;5107154;28;20006;-72
2022/06/10 00:41:42;;;;;;;;;;;;;;;-149.78;100.00;50185.91;5099614;28;19924;-72
2022/06/10 00:44:34;;;;;;;;;;;;;;;-149.78;100.00;50203.50;5105815;28;19922;-72
2022/06/10 00:47:00;;;;;;;;;;;;;;;-149.78;100.00;50170.25;5102712;28;19931;-73
2022/06/10 00:49:26;;;;;;;;;;;;;;;-149.78;100.00;50201.56;5102161;28;19923;-72
2022/06/10 00:51:54;;;;;;;;;;;;;;;-149.78;100.00;50187.88;5105099;28;19916;-72
2022/06/10 00:54:23;;;;;;;;;;;;;;;-149.78;100.00;50185.91;5104971;28;19916;-72
2022/06/10 00:57:01;;;;;;;;;;;;;;;-149.78;100.00;50180.03;5105243;28;19920;-73
2022/06/10 00:59:29;;;;;;;;;;;;;;;-149.78;100.00;50217.19;5105105;28;20599;-72
2022/06/10 01:02:07;;;;;;;;;;;;;;;-149.78;100.00;50207.44;5106445;28;19920;-73
2022/06/10 01:04:32;;;;;;;;;;;;;;;-149.78;100.00;50242.63;5105731;28;19975;-73
2022/06/10 01:06:58;;;;;;;;;;;;;;;-149.78;100.00;50201.56;5105972;28;19970;-72
2022/06/10 01:09:24;;;;;;;;;;;;;;;-149.78;100.00;50185.91;5104172;28;20010;-72
2022/06/10 01:11:59;;;;;;;;;;;;;;;-149.78;100.00;50221.13;5103171;28;19920;-73
2022/06/10 01:14:44;;;;;;;;;;;;;;;-149.78;100.00;50185.91;5098256;28;19944;-73
2022/06/10 01:17:35;;;;;;;;;;;;;;;-149.78;100.00;50244.59;5100929;28;19920;-73
2022/06/10 01:20:12;;;;;;;;;;;;;;;-149.78;100.00;50226.97;5105821;28;20332;-73
2022/06/10 01:22:53;;;;;;;;;;;;;;;-149.78;100.00;50234.81;5097958;28;20010;-72
2022/06/10 01:25:25;;;;;;;;;;;;;;;-149.78;100.00;50225.03;5093960;28;19923;-72
2022/06/10 01:28:05;;;;;;;;;;;;;;;-149.78;100.00;50209.38;5098614;28;19962;-72
2022/06/10 01:30:40;;;;;;;;;;;;;;;-149.78;100.00;50209.38;5102896;28;19924;-73
2022/06/10 01:33:05;;;;;;;;;;;;;;;-149.78;100.00;50207.44;5101856;28;19924;-73
2022/06/10 01:35:53;;;;;;;;;;;;;;;-149.78;100.00;50228.94;5096792;28;20291;-72
2022/06/10 01:38:26;;;;;;;;;;;;;;;-149.78;100.00;50240.66;5102513;28;19923;-72
2022/06/10 01:41:24;;;;;;;;;;;;;;;-149.78;100.00;50195.69;5102564;28;20379;-73
2022/06/10 01:44:05;;;;;;;;;;;;;;;-149.78;100.00;50236.75;5080128;28;19916;-73
2022/06/10 01:46:32;;;;;;;;;;;;;;;-149.78;100.00;50205.47;5106122;28;20022;-73
2022/06/10 01:49:06;;;;;;;;;;;;;;;-149.78;100.00;50209.38;5104566;28;20295;-73
2022/06/10 01:51:31;;;;;;;;;;;;;;;-149.78;100.00;50228.94;5104527;28;20544;-73
2022/06/10 01:54:00;;;;;;;;;;;;;;;-149.78;100.00;50221.13;5104231;28;19930;-72
2022/06/10 01:56:30;;;;;;;;;;;;;;;-149.78;100.00;50185.91;5102993;28;19916;-72
2022/06/10 01:58:59;;;;;;;;;;;;;;;-149.78;100.00;50225.03;5098615;28;20060;-72
2022/06/10 02:01:32;;;;;;;;;;;;;;;-149.78;100.00;50219.16;5098995;28;20291;-72
2022/06/10 02:04:20;;;;;;;;;;;;;;;-149.78;100.00;50248.50;5096523;28;19984;-73
2022/06/10 02:06:48;;;;;;;;;;;;;;;-149.78;100.00;50215.25;5092204;28;20006;-72
2022/06/10 02:09:16;;;;;;;;;;;;;;;-149.78;100.00;50205.47;5092826;28;19923;-72
2022/06/10 02:11:43;;;;;;;;;;;;;;;-149.78;100.00;50187.88;5093137;28;19999;-72
2022/06/10 02:14:11;;;;;;;;;;;;;;;-149.78;100.00;50236.75;5106144;28;20299;-72
2022/06/10 02:16:43;;;;;;;;;;;;;;;-149.78;100.00;50185.91;5103395;28;20014;-72
2022/06/10 02:19:30;;;;;;;;;;;;;;;-149.78;100.00;50201.56;5078866;28;19923;-72
2022/06/10 02:22:00;;;;;;;;;;;;;;;-149.78;100.00;50240.66;5103685;28;20363;-72
2022/06/10 02:24:38;;;;;;;;;;;;;;;-149.78;100.00;50201.56;5096757;28;20316;-72
2022/06/10 02:27:06;;;;;;;;;;;;;;;-149.78;100.00;50219.16;5101871;28;20451;-72
2022/06/10 02:29:35;;;;;;;;;;;;;;;-149.78;100.00;50232.84;5100140;28;19977;-72
2022/06/10 02:32:01;;;;;;;;;;;;;;;-149.78;100.00;50244.59;5096275;28;19977;-72
2022/06/10 02:34:27;;;;;;;;;;;;;;;-149.78;100.00;50228.94;5101828;28;19924;-72
2022/06/10 02:36:59;;;;;;;;;;;;;;;-149.78;100.00;50189.81;5099358;28;19952;-72
2022/06/10 02:39:37;;;;;;;;;;;;;;;-149.78;100.00;50264.13;5101160;28;20433;-72
2022/06/10 02:42:10;;;;;;;;;;;;;;;-149.78;100.00;50236.75;5099914;28;21813;-72
2022/06/10 02:44:41;;;;;;;;;;;;;;;-149.78;100.00;50248.50;5101548;28;19930;-72
2022/06/10 02:47:13;;;;;;;;;;;;;;;-149.78;100.00;50256.31;5098637;28;19926;-72
2022/06/10 02:49:39;;;;;;;;;;;;;;;-149.78;100.00;50270.00;5099088;28;19919;-72
2022/06/10 02:52:04;;;;;;;;;;;;;;;-149.78;100.00;50248.50;5098099;28;20382;-72
2022/06/10 02:54:32;;;;;;;;;;;;;;;-149.78;100.00;50217.19;5080788;28;19927;-72
2022/06/10 02:57:01;;;;;;;;;;;;;;;-149.78;100.00;50221.13;5103015;28;19935;-72
2022/06/10 03:02:12;;;;;;;;;;;;;;;-149.78;100.00;50256.31;5105610;28;19951;-72
2022/06/10 03:04:47;;;;;;;;;;;;;;;-149.78;100.00;50236.75;5101574;28;19924;-73
2022/06/10 03:07:18;;;;;;;;;;;;;;;-149.78;100.00;50260.22;5103715;28;19924;-72
2022/06/10 03:09:50;;;;;;;;;;;;;;;-149.78;100.00;50268.03;5099826;28;19959;-72
2022/06/10 03:12:35;;;;;;;;;;;;;;;-149.78;100.00;50248.50;5105170;28;19923;-72
2022/06/10 03:15:19;;;;;;;;;;;;;;;-149.78;100.00;50236.75;5102189;28;19919;-72
2022/06/10 03:18:03;;;;;;;;;;;;;;;-149.78;100.00;50256.31;5102874;28;19923;-72
2022/06/10 03:20:40;;;;;;;;;;;;;;;-149.78;100.00;50228.94;5104445;28;19951;-72
2022/06/10 03:23:22;;;;;;;;;;;;;;;-149.78;100.00;50279.78;5102982;28;21619;-72
2022/06/10 03:25:51;;;;;;;;;;;;;;;-149.78;100.00;50215.25;5101077;28;19973;-72
2022/06/10 03:28:26;;;;;;;;;;;;;;;-149.78;100.00;50273.91;5098848;28;19924;-72
2022/06/10 03:31:03;;;;;;;;;;;;;;;-149.78;100.00;50250.44;5102560;28;20005;-72
2022/06/10 03:33:32;;;;;;;;;;;;;;;-149.78;100.00;50252.41;5100950;28;19964;-72
2022/06/10 03:36:03;;;;;;;;;;;;;;;-149.78;100.00;50264.13;5103415;28;19927;-72
2022/06/10 03:38:31;;;;;;;;;;;;;;;-149.78;100.00;50232.84;5100928;28;20011;-72
2022/06/10 03:40:58;;;;;;;;;;;;;;;-149.78;100.00;50246.53;5101545;28;19931;-72
2022/06/10 03:43:24;;;;;;;;;;;;;;;-149.78;100.00;50236.75;5103427;28;20190;-72
2022/06/10 03:45:51;;;;;;;;;;;;;;;-149.78;100.00;50240.66;5102338;28;19920;-72
2022/06/10 03:48:20;;;;;;;;;;;;;;;-149.78;100.00;50283.69;5102238;28;20018;-72
2022/06/10 03:50:47;;;;;;;;;;;;;;;-149.78;100.00;50248.50;5101192;28;19955;-72
2022/06/10 03:53:14;;;;;;;;;;;;;;;-149.78;100.00;50236.75;5102495;28;19962;-73
2022/06/10 03:55:40;;;;;;;;;;;;;;;-149.78;100.00;50230.88;5105363;28;19927;-73
2022/06/10 03:58:06;;;;;;;;;;;;;;;-149.78;100.00;50256.31;5100733;28;19935;-74
2022/06/10 04:00:31;;;;;;;;;;;;;;;-149.78;100.00;50260.22;5104594;28;19924;-73
2022/06/10 04:02:57;;;;;;;;;;;;;;;-149.78;100.00;50248.50;5085344;28;20032;-71
2022/06/10 04:05:23;;;;;;;;;;;;;;;-149.78;100.00;50264.13;5101679;28;19938;-72
2022/06/10 04:07:49;;;;;;;;;;;;;;;-149.78;100.00;50275.88;5104798;28;19915;-72
2022/06/10 04:10:16;;;;;;;;;;;;;;;-149.78;100.00;50244.59;5100687;28;19962;-71
2022/06/10 04:12:42;;;;;;;;;;;;;;;-149.78;100.00;50230.88;5103361;28;19935;-72
2022/06/10 04:15:08;;;;;;;;;;;;;;;-149.78;100.00;50232.84;5103431;28;19919;-71
2022/06/10 04:17:34;;;;;;;;;;;;;;;-149.78;100.00;50268.03;5100840;28;19936;-72
2022/06/10 04:20:00;;;;;;;;;;;;;;;-149.78;100.00;50232.84;5100797;28;20274;-72
2022/06/10 04:22:25;;;;;;;;;;;;;;;-149.78;100.00;50213.28;5099984;28;19923;-70
2022/06/10 04:24:51;;;;;;;;;;;;;;;-149.78;100.00;50275.88;5101175;28;19927;-71
2022/06/10 04:27:17;;;;;;;;;;;;;;;-149.78;100.00;50228.94;5099461;28;20342;-71
2022/06/10 04:29:43;;;;;;;;;;;;;;;-149.78;100.00;50254.34;5102530;28;19927;-71
2022/06/10 04:32:09;;;;;;;;;;;;;;;-149.78;100.00;50252.41;5102744;28;19927;-71
2022/06/10 04:34:36;;;;;;;;;;;;;;;-149.78;100.00;50266.09;5101737;28;20388;-70
2022/06/10 04:37:03;;;;;;;;;;;;;;;-149.78;100.00;50248.50;5101620;28;19928;-70
2022/06/10 04:39:28;;;;;;;;;;;;;;;-149.78;100.00;50275.88;5099917;28;19919;-70
2022/06/10 04:41:54;;;;;;;;;;;;;;;-149.78;100.00;50271.97;5101000;28;19924;-69
2022/06/10 04:44:20;;;;;;;;;;;;;;;-149.78;100.00;50244.59;5104298;28;20715;-70
2022/06/10 04:46:46;;;;;;;;;;;;;;;-149.78;100.00;50248.50;5103300;28;19928;-70
2022/06/10 04:49:11;;;;;;;;;;;;;;;-149.78;100.00;50277.81;5081472;28;19931;-70
2022/06/10 04:51:37;;;;;;;;;;;;;;;-149.78;100.00;50252.41;5101503;28;20394;-70
2022/06/10 04:54:04;;;;;;;;;;;;;;;-149.78;100.00;50262.19;5102422;28;21184;-70
2022/06/10 04:56:30;;;;;;;;;;;;;;;-149.78;100.00;50240.66;5103313;28;19920;-70
2022/06/10 04:58:56;;;;;;;;;;;;;;;-149.78;100.00;50225.03;5099612;28;19920;-70
2022/06/10 05:01:22;;;;;;;;;;;;;;;-149.78;100.00;50246.53;5101364;28;19923;-70
2022/06/10 05:03:47;;;;;;;;;;;;;;;-149.78;100.00;50293.47;5103905;28;19926;-70
2022/06/10 05:06:13;;;;;;;;;;;;;;;-149.78;100.00;50221.13;5099300;28;20596;-70
2022/06/10 05:08:39;;;;;;;;;;;;;;;-149.78;100.00;50244.59;5099972;28;19924;-70
2022/06/10 05:11:05;;;;;;;;;;;;;;;-149.78;100.00;50252.41;5095786;28;19919;-70
2022/06/10 05:13:30;;;;;;;;;;;;;;;-149.78;100.00;50268.03;5099155;28;19919;-70
2022/06/10 05:15:56;;;;;;;;;;;;;;;-149.78;100.00;50248.50;5100821;28;19931;-70
2022/06/10 05:18:22;;;;;;;;;;;;;;;-149.78;100.00;50244.59;5097932;28;20463;-70
2022/06/10 05:20:48;;;;;;;;;;;;;;;-149.78;100.00;50248.50;5100497;28;19919;-70
2022/06/10 05:23:14;;;;;;;;;;;;;;;-149.78;100.00;50252.41;5097044;28;19922;-70
2022/06/10 05:25:41;;;;;;;;;;;;;;;-149.78;100.00;50225.03;5101286;28;19915;-70
2022/06/10 05:28:07;;;;;;;;;;;;;;;-149.78;100.00;50256.31;5099585;28;20006;-70
2022/06/10 05:30:34;;;;;;;;;;;;;;;-149.78;100.00;50236.75;5098698;28;20030;-69
2022/06/10 05:33:00;;;;;;;;;;;;;;;-149.78;100.00;50256.31;5097437;28;19942;-71
2022/06/10 05:35:26;;;;;;;;;;;;;;;-149.78;100.00;50223.06;5100991;28;19930;-70
2022/06/10 05:37:51;;;;;;;;;;;;;;;-149.78;100.00;50240.66;5098935;28;19916;-70
2022/06/10 05:40:17;;;;;;;;;;;;;;;-149.78;100.00;50244.59;5097715;28;19930;-71
2022/06/10 05:42:43;;;;;;;;;;;;;;;-149.78;100.00;50232.84;5099940;28;19927;-71
2022/06/10 05:45:09;;;;;;;;;;;;;;;-149.78;100.00;50240.66;5099457;28;19920;-71
2022/06/10 05:47:35;;;;;;;;;;;;;;;-149.78;100.00;50228.94;5099305;28;19934;-71
2022/06/10 05:50:06;;;;;;;;;;;;;;;-149.78;100.00;50252.41;5096997;28;20471;-71
2022/06/10 05:52:31;;;;;;;;;;;;;;;-149.78;100.00;50213.28;5095861;28;19916;-71
2022/06/10 05:54:59;;;;;;;;;;;;;;;-149.78;100.00;50219.16;5096485;28;21319;-74
2022/06/10 05:57:25;;;;;;;;;;;;;;;-149.78;100.00;50236.75;5096537;28;19922;-73
2022/06/10 05:59:52;;;;;;;;;;;;;;;-149.78;100.00;50209.38;5098179;28;19924;-71
2022/06/10 06:02:19;;;;;;;;;;;;;;;-149.78;100.00;50189.81;5098759;28;19933;-72
2022/06/10 06:04:45;;;;;;;;;;;;;;;-149.78;100.00;50246.53;5097131;28;19973;-72
2022/06/10 06:07:14;;;;;;;;;;;;;;;-149.78;100.00;50217.19;5097152;28;19931;-72
2022/06/10 06:09:39;;;;;;;;;;;;;;;-149.78;100.00;50205.47;5100260;28;19973;-72
2022/06/10 06:12:05;;;;;;;;;;;;;;;-149.78;100.00;50197.66;5098275;28;19915;-75
2022/06/10 06:14:32;;;;;;;;;;;;;;;-149.78;100.00;50197.66;5100008;28;20001;-72
2022/06/10 06:16:59;;;;;;;;;;;;;;;-149.78;100.00;50182.00;5102346;28;19927;-73
2022/06/10 06:19:26;;;;;;;;;;;;;;;-149.78;100.00;50211.34;5100150;28;19919;-71
2022/06/10 06:21:53;;;;;;;;;;;;;;;-149.78;100.00;50197.66;5089653;28;19916;-70
2022/06/10 06:24:18;;;;;;;;;;;;;;;-149.78;100.00;50248.50;5092227;28;19935;-74
2022/06/10 06:26:44;;;;;;;;;;;;;;;-149.78;100.00;50187.88;5093874;28;19934;-74
2022/06/10 06:29:10;;;;;;;;;;;;;;;-149.78;100.00;50195.69;5092719;28;19928;-74
2022/06/10 06:31:36;;;;;;;;;;;;;;;-149.78;100.00;50164.41;5087620;28;19974;-73
2022/06/10 06:34:01;;;;;;;;;;;;;;;-149.78;100.00;50185.91;5091932;28;19965;-74
2022/06/10 06:36:30;;;;;;;;;;;;;;;-149.78;100.00;50174.19;5099478;28;19920;-72
2022/06/10 06:38:57;;;;;;;;;;;;;;;-149.78;100.00;50174.19;5101813;28;19920;-74
2022/06/10 06:41:23;;;;;;;;;;;;;;;-149.78;100.00;50170.25;5095230;28;19927;-72
2022/06/10 06:43:48;;;;;;;;;;;;;;;-149.78;100.00;50166.34;5097718;28;19939;-73
2022/06/10 06:46:15;;;;;;;;;;;;;;;-149.78;100.00;50162.44;5099359;28;20297;-74
2022/06/10 06:48:41;;;;;;;;;;;;;;;-149.78;100.00;50146.81;5100217;28;19992;-74
2022/06/10 06:51:08;;;;;;;;;;;;;;;-149.78;100.00;50144.84;5104215;28;19920;-73
2022/06/10 06:53:33;;;;;;;;;;;;;;;-149.78;100.00;50127.25;5100639;28;19955;-73
2022/06/10 06:56:00;;;;;;;;;;;;;;;-149.78;100.00;50154.63;5093363;28;20018;-72
2022/06/10 06:58:25;;;;;;;;;;;;;;;-149.78;100.00;50131.16;5096723;28;19924;-72
2022/06/10 07:00:52;;;;;;;;;;;;;;;-149.78;100.00;50111.59;5091770;28;19920;-73
2022/06/10 07:03:17;;;;;;;;;;;;;;;-149.78;100.00;50092.03;5097452;28;19972;-73
2022/06/10 07:05:43;;;;;;;;;;;;;;;-149.78;100.00;50041.19;5098190;28;19953;-71
2022/06/10 07:08:09;;;;;;;;;;;;;;;-149.78;95.94;50064.66;5093645;28;20371;-71
2022/06/10 07:10:34;;;;;;;;;;;;;;;-149.78;84.62;50029.47;5098559;28;19931;-71
2022/06/10 07:13:00;;;;;;;;;;;;;;;-149.78;78.08;50033.38;5103589;28;19916;-71
2022/06/10 07:15:25;;;;;;;;;;;;;;;-149.78;67.88;50025.56;5101222;28;19927;-72
2022/06/10 07:17:51;;;;;;;;;;;;;;;-149.78;62.41;49994.25;5080903;28;19928;-73
2022/06/10 07:20:22;;;;;;;;;;;;;;;-149.78;56.42;49994.25;5100000;28;20027;-73
2022/06/10 07:22:47;;;;;;;;;;;;;;;-149.78;53.69;49998.19;5102739;28;20322;-74
2022/06/10 07:25:14;;;;;;;;;;;;;;;-149.78;51.74;49931.69;5099533;28;20031;-73
2022/06/10 07:27:45;;;;;;;;;;;;;;;-149.78;47.68;49939.50;5099693;28;20270;-74
2022/06/10 07:30:12;;;;;;;;;;;;;;;-149.78;48.74;49925.81;5101115;28;19934;-71
2022/06/10 07:32:39;;;;;;;;;;;;;;;-149.78;46.74;49919.94;5096436;28;19924;-73
2022/06/10 07:35:05;;;;;;;;;;;;;;;-149.78;42.85;49923.88;5102193;28;19915;-73
2022/06/10 07:37:30;;;;;;;;;;;;;;;-149.78;43.83;49931.69;5104650;28;20332;-73
2022/06/10 07:39:57;;;;;;;;;;;;;;;-149.78;42.86;49912.13;5103053;28;19926;-73
2022/06/10 07:42:22;;;;;;;;;;;;;;;-149.78;42.33;49894.53;5098370;28;19923;-73
2022/06/10 07:44:48;;;;;;;;;;;;;;;-149.78;39.29;49871.06;5100657;28;19924;-72
2022/06/10 07:47:14;;;;;;;;;;;;;;;-149.78;39.44;49892.56;5103842;28;19927;-73
2022/06/10 07:49:39;;;;;;;;;;;;;;;-149.78;40.87;49900.41;5101878;28;20390;-73
2022/06/10 07:52:06;;;;;;;;;;;;;;;-149.78;40.73;49884.75;5101263;28;20008;-73
2022/06/10 07:54:32;;;;;;;;;;;;;;;-149.78;41.94;49908.22;5100721;28;19924;-72
2022/06/10 07:56:58;;;;;;;;;;;;;;;-149.78;40.00;49837.81;5103797;28;20302;-73
2022/06/10 07:59:23;;;;;;;;;;;;;;;-149.78;36.19;49826.09;5098526;28;19927;-72
2022/06/10 08:01:49;;;;;;;;;;;;;;;-149.78;34.30;49802.63;5099413;28;19942;-73
2022/06/10 08:04:15;;;;;;;;;;;;;;;-149.78;33.58;49769.38;5100822;28;20592;-71
2022/06/10 08:06:42;;;;;;;;;;;;;;;-149.78;33.00;49796.75;5102051;28;19924;-73
2022/06/10 08:09:08;;;;;;;;;;;;;;;-149.78;35.85;49794.81;5099960;28;19927;-73
2022/06/10 08:11:34;;;;;;;;;;;;;;;-149.78;35.13;49798.72;5101012;28;19985;-75
2022/06/10 08:14:00;;;;;;;;;;;;;;;-149.78;34.32;49871.06;5101378;28;19966;-75
2022/06/10 08:16:25;;;;;;;;;;;;;;;-149.78;34.80;49826.09;5097799;28;19932;-75
2022/06/10 08:18:51;;;;;;;;;;;;;;;-149.78;33.82;49822.19;5096513;28;19928;-75
2022/06/10 08:24:01;;;;;;;;;;;;;;;-149.78;33.94;49755.69;5081347;28;20256;-70
2022/06/10 08:26:27;;;;;;;;;;;;;;;-149.78;33.31;49763.53;5082376;28;19986;-68
2022/06/10 08:28:54;;;;;;;;;;;;;;;-149.78;32.11;49767.44;5072534;28;19924;-71
2022/06/10 08:31:19;;;;;;;;;;;;;;;-149.78;31.55;49786.97;5080408;28;19917;-71
2022/06/10 08:33:46;;;;;;;;;;;;;;;-149.78;32.01;49761.56;5088542;28;19920;-71
2022/06/10 08:36:13;;;;;;;;;;;;;;;-149.78;32.19;49767.44;5085088;28;19916;-71
2022/06/10 08:38:42;;;;;;;;;;;;;;;-149.78;31.92;49736.13;5079414;28;19917;-72
2022/06/10 08:41:26;;;;;;;;;;;;;;;-149.78;32.12;49761.56;5083506;28;19927;-71
2022/06/10 08:44:09;;;;;;;;;;;;;;;-149.78;32.98;49835.88;5099362;28;19923;-72
2022/06/10 08:46:34;;;;;;;;;;;;;;;-149.78;32.12;49771.34;5097502;28;19931;-72
2022/06/10 08:49:03;;;;;;;;;;;;;;;-149.78;30.91;49786.97;5096762;28;19928;-71
2022/06/10 08:51:42;;;;;;;;;;;;;;;-149.78;31.33;49779.16;5095679;28;19928;-71
2022/06/10 08:54:08;;;;;;;;;;;;;;;-149.78;32.77;49828.03;5099184;28;20337;-72
2022/06/10 08:56:35;;;;;;;;;;;;;;;-149.78;35.03;49896.50;5097548;28;20014;-71
2022/06/10 08:59:13;;;;;;;;;;;;;;;-149.78;35.59;49923.88;5096496;28;20320;-72
2022/06/10 09:01:44;;;;;;;;;;;;;;;-149.78;37.72;49925.81;5100872;28;19915;-72
2022/06/10 09:04:19;;;;;;;;;;;;;;;-149.78;36.86;49841.72;5099269;28;19943;-71
2022/06/10 09:06:56;;;;;;;;;;;;;;;-149.78;36.42;49857.38;5094147;28;19937;-72
2022/06/10 09:09:25;;;;;;;;;;;;;;;-149.78;33.71;49802.63;5101153;28;19922;-71
2022/06/10 09:11:51;;;;;;;;;;;;;;;-149.78;35.01;49794.81;5096298;28;20335;-72
2022/06/10 09:14:18;;;;;;;;;;;;;;;-149.78;32.85;49802.63;5103235;28;19972;-70
2022/06/10 09:16:47;;;;;;;;;;;;;;;-149.78;35.75;49845.66;5099300;28;19923;-72
2022/06/10 09:19:22;;;;;;;;;;;;;;;-149.78;35.98;49837.81;5101291;28;19920;-72
2022/06/10 09:21:51;;;;;;;;;;;;;;;-149.78;36.50;49916.03;5090653;28;19931;-71
2022/06/10 09:24:27;;;;;;;;;;;;;;;-149.78;37.94;49904.31;5086642;28;20051;-71
2022/06/10 09:26:58;;;;;;;;;;;;;;;-149.78;42.08;49939.50;5093852;28;19926;-71
2022/06/10 09:29:24;;;;;;;;;;;;;;;-149.78;41.86;49961.03;5095146;28;20283;-71
2022/06/10 09:31:59;;;;;;;;;;;;;;;-149.78;43.94;49980.56;5093917;28;19924;-71
2022/06/10 09:34:36;;;;;;;;;;;;;;;-149.78;43.96;49908.22;5100716;28;19916;-70
2022/06/10 09:37:31;;;;;;;;;;;;;;;-149.78;41.84;49916.03;5095893;28;19927;-70
2022/06/10 09:42:52;;;;;;;;;;;;;;;-149.78;41.00;49935.59;5098872;28;20030;-71
2022/06/10 09:45:24;;;;;;;;;;;;;;;-149.78;41.99;49918.00;5095988;28;19963;-70
2022/06/10 09:48:11;;;;;;;;;;;;;;;-149.78;43.60;49927.78;5102010;28;19916;-71
2022/06/10 09:50:42;;;;;;;;;;;;;;;-149.78;40.58;49951.25;5098124;28;19924;-71
2022/06/10 09:53:08;;;;;;;;;;;;;;;-149.78;42.50;49962.97;5099657;28;19963;-71
2022/06/10 09:55:40;;;;;;;;;;;;;;;-149.78;46.51;49974.72;5101399;28;20673;-71
2022/06/10 09:58:20;;;;;;;;;;;;;;;-149.78;47.15;50029.47;5100469;28;20028;-71
2022/06/10 10:00:48;;;;;;;;;;;;;;;-149.78;48.45;49982.53;5101155;28;19924;-70
2022/06/10 10:03:20;;;;;;;;;;;;;;;-149.78;48.73;49996.22;5094014;28;20018;-71
2022/06/10 10:05:58;;;;;;;;;;;;;;;-149.78;51.27;50013.81;5093198;28;20298;-70
2022/06/10 10:08:35;;;;;;;;;;;;;;;-149.78;56.56;50002.09;5090414;28;19923;-71
2022/06/10 10:11:24;;;;;;;;;;;;;;;-149.78;55.90;50013.81;5093124;28;20458;-72
2022/06/10 10:13:49;;;;;;;;;;;;;;;-149.78;59.67;50019.69;5093583;27;20758;-72
2022/06/10 10:16:18;;;;;;;;;;;;;;;-149.78;58.92;50027.50;5092318;28;19930;-71
2022/06/10 10:18:52;;;;;;;;;;;;;;;-149.78;60.64;50009.91;5096818;28;19920;-71
2022/06/10 10:21:18;;;;;;;;;;;;;;;-149.78;62.23;50019.69;5097604;28;20002;-71
2022/06/10 10:23:47;;;;;;;;;;;;;;;-149.78;68.95;50037.28;5097540;28;19967;-70
2022/06/10 10:26:20;;;;;;;;;;;;;;;-149.78;72.23;50035.34;5097170;28;20298;-70
2022/06/10 10:28:51;;;;;;;;;;;;;;;-149.78;92.18;50052.94;5098352;28;19924;-71
2022/06/10 10:31:22;;;;;;;;;;;;;;;-149.78;100.00;50056.84;5098592;28;20295;-75
2022/06/10 10:33:48;;;;;;;;;;;;;;;-149.78;96.02;50068.56;5095183;28;19924;-74
2022/06/10 10:36:21;;;;;;;;;;;;;;;-149.78;96.33;50060.75;5098308;28;20268;-72
2022/06/10 10:38:48;;;;;;;;;;;;;;;-149.78;78.89;50033.38;5098571;28;19927;-71
2022/06/10 10:41:21;;;;;;;;;;;;;;;-149.78;66.54;50031.41;5100561;28;19966;-73
2022/06/10 10:43:49;;;;;;;;;;;;;;;-149.78;62.57;49982.53;5097788;28;19919;-71
2022/06/10 10:46:34;;;;;;;;;;;;;;;-149.78;62.25;50025.56;5099027;28;20019;-72
2022/06/10 10:49:02;;;;;;;;;;;;;;;-149.78;56.54;49984.50;5100743;28;20333;-69
2022/06/10 10:51:50;;;;;;;;;;;;;;;-149.78;59.04;50013.81;5080360;28;20560;-70
2022/06/10 10:54:18;;;;;;;;;;;;;;;-149.78;55.26;49998.19;5100793;28;19923;-73
2022/06/10 10:56:47;;;;;;;;;;;;;;;-149.78;52.13;50013.81;5080762;28;20926;-73
2022/06/10 10:59:22;;;;;;;;;;;;;;;-149.78;52.95;50011.88;5100758;28;19998;-71
2022/06/10 11:01:50;;;;;;;;;;;;;;;-149.78;54.00;49968.84;5098189;28;20436;-72
2022/06/10 11:04:27;;;;;;;;;;;;;;;-149.78;54.53;49978.63;5099853;28;19924;-74
2022/06/10 11:06:59;;;;;;;;;;;;;;;-149.78;54.94;49990.34;5098974;28;19967;-70
2022/06/10 11:09:25;;;;;;;;;;;;;;;-149.78;52.74;49986.44;5100021;28;19920;-72
2022/06/10 11:11:52;;;;;;;;;;;;;;;-149.78;52.92;50013.81;5098963;28;20385;-73
2022/06/10 11:14:27;;;;;;;;;;;;;;;-149.78;57.31;50002.09;5100253;28;19916;-72
2022/06/10 11:16:56;;;;;;;;;;;;;;;-149.78;59.86;50013.81;5080275;28;19930;-71
2022/06/10 11:19:27;;;;;;;;;;;;;;;-149.78;57.34;50009.91;5101875;28;19934;-72
2022/06/10 11:22:01;;;;;;;;;;;;;;;-149.78;57.52;49990.34;5099864;28;20020;-73
2022/06/10 11:24:32;;;;;;;;;;;;;;;-149.78;55.89;49980.56;5086620;28;19926;-71
2022/06/10 11:27:02;;;;;;;;;;;;;;;-149.78;52.91;49974.72;5085554;28;19927;-71
2022/06/10 11:29:30;;;;;;;;;;;;;;;-149.78;53.05;49976.66;5085747;28;20409;-74
2022/06/10 11:32:00;;;;;;;;;;;;;;;-149.78;53.67;49970.78;5101788;28;19928;-75
2022/06/10 11:34:33;;;;;;;;;;;;;;;-149.78;53.33;49998.19;5098745;28;19920;-74
2022/06/10 11:36:59;;;;;;;;;;;;;;;-149.78;52.36;49988.41;5099910;28;19981;-74
2022/06/10 11:39:27;;;;;;;;;;;;;;;-149.78;53.94;50013.81;5098819;28;19928;-75
2022/06/10 11:42:11;;;;;;;;;;;;;;;-149.78;54.84;49978.63;5099439;27;20046;-76
2022/06/10 11:44:48;;;;;;;;;;;;;;;-149.78;56.26;49982.53;5099285;28;20053;-72
2022/06/10 11:47:33;;;;;;;;;;;;;;;-149.78;58.97;49982.53;5101069;28;19919;-74
2022/06/10 11:50:06;;;;;;;;;;;;;;;-149.78;61.81;49998.19;5099065;28;20017;-74
2022/06/10 11:52:32;;;;;;;;;;;;;;;-149.78;64.27;49986.44;5100072;28;19915;-76
2022/06/10 11:54:58;;;;;;;;;;;;;;;-149.78;63.71;50009.91;5100060;28;19932;-72
2022/06/10 12:00:19;;;;;;;;;;;;;;;-149.78;65.47;50023.59;5099759;28;19924;-73
2022/06/10 12:02:59;;;;;;;;;;;;;;;-149.78;66.13;50015.78;5101846;28;19981;-72
2022/06/10 12:05:27;;;;;;;;;;;;;;;-149.78;64.18;49996.22;5104203;28;19928;-73
2022/06/10 12:08:08;;;;;;;;;;;;;;;-149.78;63.08;49990.34;5100767;28;19927;-73
2022/06/10 12:10:44;;;;;;;;;;;;;;;-149.78;59.72;50017.72;5078484;28;19928;-73
2022/06/10 12:13:11;;;;;;;;;;;;;;;-149.78;59.11;50004.03;5078053;28;19940;-73
2022/06/10 12:15:42;;;;;;;;;;;;;;;-149.78;61.02;50013.81;5097564;28;19931;-74
2022/06/10 12:18:10;;;;;;;;;;;;;;;-149.78;57.71;49966.88;5098924;28;19984;-73
2022/06/10 12:20:44;;;;;;;;;;;;;;;-149.78;57.79;49996.22;5097785;28;19935;-72
2022/06/10 12:23:12;;;;;;;;;;;;;;;-149.78;53.90;49982.53;5094263;28;19923;-72
2022/06/10 12:25:57;;;;;;;;;;;;;;;-149.78;51.12;49982.53;5100815;28;19928;-72
2022/06/10 12:28:42;;;;;;;;;;;;;;;-149.78;50.42;49978.63;5101703;28;20509;-71
2022/06/10 12:31:10;;;;;;;;;;;;;;;-149.78;47.45;49970.78;5098522;28;19920;-73
2022/06/10 12:33:42;;;;;;;;;;;;;;;-149.78;45.23;50017.72;5096705;28;20431;-71
2022/06/10 12:36:12;;;;;;;;;;;;;;;-149.78;45.21;49970.78;5098786;28;21044;-73
2022/06/10 12:38:40;;;;;;;;;;;;;;;-149.78;47.54;49972.75;5102646;28;20406;-73
2022/06/10 12:41:06;;;;;;;;;;;;;;;-149.78;48.07;49974.72;5101849;28;20665;-74
2022/06/10 12:43:53;;;;;;;;;;;;;;;-149.78;51.95;49994.25;5098298;28;19923;-73